createdAt,value
2023-04-21T00:01:32.900Z,101802.84
2023-04-21T00:04:00.369Z,101806.78
2023-04-21T00:06:28.834Z,101800.53
2023-04-21T00:08:55.403Z,101806.69
2023-04-21T00:11:22.598Z,101796.94
2023-04-21T00:13:49.503Z,101799.22
2023-04-21T00:16:16.458Z,101798.34
2023-04-21T00:18:43.305Z,101800.06
2023-04-21T00:21:09.966Z,101796.19
2023-04-21T00:23:36.665Z,101784.38
2023-04-21T00:26:03.523Z,101784.88
2023-04-21T00:28:30.622Z,101784.31
2023-04-21T00:30:57.705Z,101792.06
2023-04-21T00:33:24.397Z,101786.34
2023-04-21T00:35:51.025Z,101790.22
2023-04-21T00:38:18.779Z,101780.22
2023-04-21T00:40:45.491Z,101787.31
2023-04-21T00:43:13.202Z,101777.72
2023-04-21T00:45:40.017Z,101779.78
2023-04-21T00:48:07.734Z,101781.97
2023-04-21T00:50:34.437Z,101779.81
2023-04-21T00:53:01.580Z,101777.44
2023-04-21T00:55:29.180Z,101773.16
2023-04-21T00:57:57.522Z,101761.28
2023-04-21T01:00:25.615Z,101769.47
2023-04-21T01:02:52.392Z,101767.19
2023-04-21T01:05:19.131Z,101762.53
2023-04-21T01:07:45.946Z,101771.28
2023-04-21T01:10:12.524Z,101760.47
2023-04-21T01:12:45.532Z,101767.50
2023-04-21T01:15:12.709Z,101768.53
2023-04-21T01:17:40.439Z,101761.31
2023-04-21T01:20:11.758Z,101757.84
2023-04-21T01:22:39.570Z,101770.31
2023-04-21T01:25:07.425Z,101769.22
2023-04-21T01:27:34.066Z,101762.00
2023-04-21T01:30:07.734Z,101756.16
2023-04-21T01:32:35.781Z,101761.94
2023-04-21T01:35:02.829Z,101759.44
2023-04-21T01:37:32.567Z,101759.34
2023-04-21T01:40:01.137Z,101761.63
2023-04-21T01:42:28.839Z,101755.59
2023-04-21T01:44:56.026Z,101758.69
2023-04-21T01:47:23.010Z,101752.94
2023-04-21T01:49:49.418Z,101754.31
2023-04-21T01:52:16.172Z,101753.94
2023-04-21T01:54:44.095Z,101753.28
2023-04-21T01:57:10.853Z,101745.59
2023-04-21T01:59:37.539Z,101758.22
2023-04-21T02:02:04.856Z,101748.31
2023-04-21T02:04:33.464Z,101746.13
2023-04-21T02:07:00.462Z,101743.34
2023-04-21T02:09:27.195Z,101748.44
2023-04-21T02:11:56.572Z,101746.09
2023-04-21T02:14:23.229Z,101747.13
2023-04-21T02:16:50.027Z,101741.19
2023-04-21T02:19:17.233Z,101744.34
2023-04-21T02:21:44.111Z,101730.41
2023-04-21T02:24:10.929Z,101739.13
2023-04-21T02:26:37.689Z,101745.91
2023-04-21T02:29:04.585Z,101736.41
2023-04-21T02:33:59.735Z,101727.03
2023-04-21T02:36:27.411Z,101736.84
2023-04-21T02:38:55.460Z,101727.84
2023-04-21T02:41:24.207Z,101731.56
2023-04-21T02:43:50.851Z,101726.56
2023-04-21T02:46:17.496Z,101721.44
2023-04-21T02:48:44.088Z,101730.50
2023-04-21T02:51:14.080Z,101722.38
2023-04-21T02:53:41.441Z,101723.25
2023-04-21T02:56:08.920Z,101730.25
2023-04-21T02:58:36.479Z,101729.09
2023-04-21T03:01:04.730Z,101724.69
2023-04-21T03:03:32.172Z,101720.91
2023-04-21T03:06:03.297Z,101711.16
2023-04-21T03:08:31.231Z,101719.38
2023-04-21T03:10:57.983Z,101720.97
2023-04-21T03:13:24.917Z,101720.34
2023-04-21T03:15:52.683Z,101718.50
2023-04-21T03:18:19.275Z,101715.84
2023-04-21T03:20:45.878Z,101723.25
2023-04-21T03:23:12.706Z,101723.00
2023-04-21T03:25:40.148Z,101713.63
2023-04-21T03:28:07.087Z,101713.22
2023-04-21T03:30:33.887Z,101712.81
2023-04-21T03:33:00.698Z,101716.25
2023-04-21T03:35:27.988Z,101707.88
2023-04-21T03:37:54.644Z,101714.72
2023-04-21T03:40:24.345Z,101718.66
2023-04-21T03:42:51.117Z,101704.09
2023-04-21T03:45:22.400Z,101713.66
2023-04-21T03:47:49.752Z,101713.06
2023-04-21T03:50:17.283Z,101715.41
2023-04-21T03:52:44.310Z,101709.34
2023-04-21T03:55:11.932Z,101714.44
2023-04-21T03:57:40.085Z,101718.13
2023-04-21T04:00:07.462Z,101709.50
2023-04-21T04:02:35.276Z,101707.81
2023-04-21T04:05:02.432Z,101708.81
2023-04-21T04:07:31.067Z,101704.59
2023-04-21T04:09:57.712Z,101703.34
2023-04-21T04:12:24.638Z,101709.50
2023-04-21T04:14:54.880Z,101703.63
2023-04-21T04:17:22.011Z,101710.19
2023-04-21T04:19:51.412Z,101706.13
2023-04-21T04:22:19.419Z,101702.06
2023-04-21T04:24:50.356Z,101704.06
2023-04-21T04:27:18.340Z,101703.50
2023-04-21T04:29:48.585Z,101702.44
2023-04-21T04:32:16.103Z,101706.16
2023-04-21T04:34:44.036Z,101701.19
2023-04-21T04:37:11.246Z,101699.09
2023-04-21T04:39:39.264Z,101705.34
2023-04-21T04:42:12.048Z,101706.91
2023-04-21T04:44:38.820Z,101699.03
2023-04-21T04:47:06.478Z,101699.34
2023-04-21T04:49:34.333Z,101702.31
2023-04-21T04:52:02.572Z,101697.72
2023-04-21T04:54:29.327Z,101704.16
2023-04-21T04:56:56.931Z,101702.00
2023-04-21T04:59:25.492Z,101709.53
2023-04-21T05:01:53.061Z,101699.03
2023-04-21T05:04:21.030Z,101705.78
2023-04-21T05:06:55.875Z,101700.03
2023-04-21T05:09:24.384Z,101701.78
2023-04-21T05:11:51.493Z,101699.88
2023-04-21T05:14:19.948Z,101701.72
2023-04-21T05:16:48.786Z,101701.63
2023-04-21T05:19:18.686Z,101693.75
2023-04-21T05:21:47.684Z,101700.66
2023-04-21T05:24:15.582Z,101697.88
2023-04-21T05:26:42.793Z,101696.84
2023-04-21T05:29:11.631Z,101698.66
2023-04-21T05:31:39.970Z,101704.50
2023-04-21T05:34:09.991Z,101708.22
2023-04-21T05:36:36.692Z,101698.09
2023-04-21T05:39:03.340Z,101697.22
2023-04-21T05:41:33.873Z,101695.06
2023-04-21T05:44:00.458Z,101696.09
2023-04-21T05:46:27.093Z,101699.19
2023-04-21T05:48:54.210Z,101704.78
2023-04-21T05:51:20.611Z,101701.16
2023-04-21T05:53:49.383Z,101704.09
2023-04-21T05:56:16.031Z,101696.91
2023-04-21T05:58:50.905Z,101701.88
2023-04-21T06:01:17.760Z,101699.34
2023-04-21T06:03:44.488Z,101701.53
2023-04-21T06:06:11.698Z,101698.22
2023-04-21T06:08:39.575Z,101692.38
2023-04-21T06:11:06.197Z,101694.78
2023-04-21T06:13:33.188Z,101692.72
2023-04-21T06:16:00.928Z,101690.72
2023-04-21T06:18:28.611Z,101688.13
2023-04-21T06:20:55.575Z,101688.09
2023-04-21T06:23:22.210Z,101679.97
2023-04-21T06:25:59.688Z,101679.69
2023-04-21T06:28:26.427Z,101682.66
2023-04-21T06:30:52.861Z,101676.75
2023-04-21T06:33:19.418Z,101682.25
2023-04-21T06:35:46.165Z,101680.91
2023-04-21T06:38:17.038Z,101674.03
2023-04-21T06:40:43.574Z,101671.94
2023-04-21T06:43:10.020Z,101672.91
2023-04-21T06:45:38.136Z,101672.09
2023-04-21T06:48:04.650Z,101668.88
2023-04-21T06:50:32.188Z,101672.81
2023-04-21T06:52:59.694Z,101660.38
2023-04-21T06:55:26.311Z,101672.06
2023-04-21T06:57:53.860Z,101665.22
2023-04-21T07:00:21.029Z,101662.78
2023-04-21T07:02:47.576Z,101666.19
2023-04-21T07:05:14.032Z,101666.50
2023-04-21T07:07:40.583Z,101665.81
2023-04-21T07:10:08.406Z,101668.41
2023-04-21T07:12:35.620Z,101660.88
2023-04-21T07:15:02.477Z,101670.94
2023-04-21T07:17:29.205Z,101661.78
2023-04-21T07:19:56.409Z,101660.84
2023-04-21T07:22:24.186Z,101663.09
2023-04-21T07:24:51.383Z,101663.78
2023-04-21T07:27:19.319Z,101656.06
2023-04-21T07:29:47.711Z,101655.47
2023-04-21T07:32:25.429Z,101659.44
2023-04-21T07:34:51.974Z,101657.34
2023-04-21T07:37:18.522Z,101659.19
2023-04-21T07:39:45.889Z,101653.78
2023-04-21T07:42:13.140Z,101655.00
2023-04-21T07:44:43.477Z,101655.47
2023-04-21T07:47:10.014Z,101650.81
2023-04-21T07:49:36.575Z,101645.81
2023-04-21T07:52:03.678Z,101651.03
2023-04-21T07:54:31.772Z,101646.56
2023-04-21T07:56:58.882Z,101644.00
2023-04-21T07:59:25.622Z,101649.81
2023-04-21T08:01:54.533Z,101646.09
2023-04-21T08:04:21.460Z,101643.75
2023-04-21T08:06:48.306Z,101632.97
2023-04-21T08:09:16.128Z,101629.03
2023-04-21T08:11:42.762Z,101639.31
2023-04-21T08:14:12.214Z,101633.81
2023-04-21T08:16:44.029Z,101634.84
2023-04-21T08:19:10.769Z,101636.75
2023-04-21T08:21:37.759Z,101635.84
2023-04-21T08:24:04.258Z,101638.84
2023-04-21T08:26:31.370Z,101636.75
2023-04-21T08:28:57.800Z,101625.88
2023-04-21T08:31:24.294Z,101635.94
2023-04-21T08:34:01.287Z,101617.41
2023-04-21T08:36:30.346Z,101619.28
2023-04-21T08:38:57.860Z,101621.91
2023-04-21T08:41:26.598Z,101616.19
2023-04-21T08:43:54.924Z,101612.16
2023-04-21T08:46:21.901Z,101616.97
2023-04-21T08:51:22.506Z,101608.34
2023-04-21T08:53:49.127Z,101607.00
2023-04-21T08:56:15.583Z,101622.38
2023-04-21T08:58:42.169Z,101613.59
2023-04-21T09:01:08.720Z,101612.59
2023-04-21T09:03:37.577Z,101605.59
2023-04-21T09:06:10.231Z,101608.59
2023-04-21T09:08:43.962Z,101605.47
2023-04-21T09:11:14.485Z,101615.03
2023-04-21T09:13:42.642Z,101606.16
2023-04-21T09:16:17.452Z,101614.53
2023-04-21T09:18:44.531Z,101606.53
2023-04-21T09:21:12.618Z,101612.59
2023-04-21T09:23:45.386Z,101603.50
2023-04-21T09:26:12.510Z,101601.50
2023-04-21T09:28:45.351Z,101599.16
2023-04-21T09:31:16.581Z,101604.03
2023-04-21T09:36:21.194Z,101607.34
2023-04-21T09:39:20.400Z,101605.91
2023-04-21T09:41:43.784Z,101602.31
2023-04-21T09:44:10.226Z,101605.28
2023-04-21T09:46:37.388Z,101604.25
2023-04-21T09:49:04.915Z,101603.75
2023-04-21T09:51:56.267Z,101600.72
2023-04-21T09:54:29.809Z,101587.13
2023-04-21T09:56:59.448Z,101587.97
2023-04-21T09:59:30.646Z,101575.28
2023-04-21T10:01:58.427Z,101575.88
2023-04-21T10:04:25.760Z,101575.19
2023-04-21T10:06:53.591Z,101574.03
2023-04-21T10:09:23.636Z,101576.00
2023-04-21T10:11:50.165Z,101572.22
2023-04-21T10:14:16.591Z,101566.16
2023-04-21T10:16:43.187Z,101572.47
2023-04-21T10:19:25.956Z,101576.50
2023-04-21T10:21:56.399Z,101562.91
2023-04-21T10:24:24.353Z,101567.34
2023-04-21T10:26:54.039Z,101569.19
2023-04-21T10:29:43.745Z,101563.00
2023-04-21T10:32:31.105Z,101563.47
2023-04-21T10:34:57.899Z,101553.13
2023-04-21T10:37:25.545Z,101547.50
2023-04-21T10:39:53.520Z,101548.28
2023-04-21T10:42:22.978Z,101545.91
2023-04-21T10:44:58.425Z,101546.63
2023-04-21T10:47:45.230Z,101548.97
2023-04-21T10:50:13.288Z,101543.63
2023-04-21T10:52:39.732Z,101539.03
2023-04-21T10:55:07.473Z,101534.16
2023-04-21T10:57:34.533Z,101536.75
2023-04-21T11:00:01.198Z,101533.38
2023-04-21T11:02:27.756Z,101522.88
2023-04-21T11:04:55.193Z,101527.44
2023-04-21T11:07:23.152Z,101516.97
2023-04-21T11:10:01.700Z,101519.13
2023-04-21T11:12:30.028Z,101520.19
2023-04-21T11:14:57.003Z,101528.56
2023-04-21T11:17:24.504Z,101515.53
2023-04-21T11:19:55.831Z,101520.44
2023-04-21T11:22:23.706Z,101515.63
2023-04-21T11:24:52.821Z,101513.81
2023-04-21T11:27:22.370Z,101513.63
2023-04-21T11:29:49.872Z,101505.22
2023-04-21T11:32:16.820Z,101501.78
2023-04-21T11:34:43.322Z,101498.31
2023-04-21T11:37:10.750Z,101493.69
2023-04-21T11:39:40.671Z,101490.41
2023-04-21T11:42:07.059Z,101490.72
2023-04-21T11:44:41.008Z,101485.31
2023-04-21T11:47:19.598Z,101486.00
2023-04-21T11:49:46.963Z,101476.59
2023-04-21T11:52:27.010Z,101472.41
2023-04-21T11:54:58.120Z,101474.28
2023-04-21T11:57:25.566Z,101472.50
2023-04-21T11:59:52.748Z,101465.69
2023-04-21T12:02:24.366Z,101462.66
2023-04-21T12:05:03.758Z,101453.84
2023-04-21T12:07:31.761Z,101459.28
2023-04-21T12:09:58.804Z,101451.69
2023-04-21T12:12:25.440Z,101450.03
2023-04-21T12:14:52.113Z,101438.75
2023-04-21T12:17:18.879Z,101445.28
2023-04-21T12:19:45.780Z,101438.53
2023-04-21T12:22:13.280Z,101430.28
2023-04-21T12:24:40.195Z,101432.72
2023-04-21T12:27:08.153Z,101433.59
2023-04-21T12:29:38.020Z,101426.03
2023-04-21T12:32:05.584Z,101424.06
2023-04-21T12:34:32.371Z,101411.22
2023-04-21T12:37:00.305Z,101412.53
2023-04-21T12:39:26.964Z,101419.16
2023-04-21T12:41:53.667Z,101413.56
2023-04-21T12:44:21.492Z,101410.41
2023-04-21T12:46:49.218Z,101418.19
2023-04-21T12:49:17.669Z,101410.38
2023-04-21T12:51:44.877Z,101416.75
2023-04-21T12:54:11.994Z,101403.91
2023-04-21T12:56:40.473Z,101409.34
2023-04-21T12:59:07.645Z,101411.19
2023-04-21T13:01:35.476Z,101410.91
2023-04-21T13:04:02.636Z,101404.66
2023-04-21T13:06:31.603Z,101396.50
2023-04-21T13:08:58.830Z,101391.81
2023-04-21T13:11:25.854Z,101390.59
2023-04-21T13:13:52.538Z,101389.50
2023-04-21T13:16:20.536Z,101392.94
2023-04-21T13:18:47.465Z,101383.34
2023-04-21T13:21:14.319Z,101376.31
2023-04-21T13:23:41.417Z,101384.16
2023-04-21T13:26:08.369Z,101383.44
2023-04-21T13:28:34.954Z,101377.44
2023-04-21T13:31:01.733Z,101370.50
2023-04-21T13:33:28.394Z,101360.84
2023-04-21T13:35:55.034Z,101358.94
2023-04-21T13:38:26.816Z,101360.94
2023-04-21T13:40:53.488Z,101351.13
2023-04-21T13:43:19.922Z,101354.16
2023-04-21T13:45:48.240Z,101355.03
2023-04-21T13:48:15.162Z,101353.31
2023-04-21T13:50:41.670Z,101340.66
2023-04-21T13:53:08.556Z,101338.44
2023-04-21T13:55:35.154Z,101334.75
2023-04-21T13:58:01.918Z,101332.28
2023-04-21T14:00:28.743Z,101325.16
2023-04-21T14:02:56.147Z,101323.03
2023-04-21T14:05:22.943Z,101317.69
2023-04-21T14:07:49.579Z,101312.06
2023-04-21T14:10:16.047Z,101313.06
2023-04-21T14:12:45.414Z,101298.03
2023-04-21T14:15:12.373Z,101300.56
2023-04-21T14:17:38.879Z,101303.16
2023-04-21T14:20:07.443Z,101294.09
2023-04-21T14:22:33.916Z,101286.94
2023-04-21T14:25:00.663Z,101278.75
2023-04-21T14:27:27.362Z,101275.81
2023-04-21T14:29:53.758Z,101271.81
2023-04-21T14:32:20.937Z,101277.75
2023-04-21T14:34:48.336Z,101273.75
2023-04-21T14:37:14.933Z,101265.25
2023-04-21T14:39:41.916Z,101267.59
2023-04-21T14:42:09.884Z,101255.81
2023-04-21T14:44:36.647Z,101255.56
2023-04-21T14:47:09.664Z,101257.88
2023-04-21T14:49:39.472Z,101260.25
2023-04-21T14:52:09.380Z,101258.75
2023-04-21T14:54:36.962Z,101250.81
2023-04-21T14:57:18.802Z,101246.47
2023-04-21T14:59:51.665Z,101248.97
2023-04-21T15:02:27.438Z,101243.16
2023-04-21T15:04:54.311Z,101234.78
2023-04-21T15:07:24.461Z,101228.66
2023-04-21T15:09:52.233Z,101228.88
2023-04-21T15:12:19.580Z,101217.31
2023-04-21T15:14:46.408Z,101220.06
2023-04-21T15:17:13.404Z,101215.34
2023-04-21T15:19:43.407Z,101222.22
2023-04-21T15:22:12.265Z,101208.16
2023-04-21T15:24:38.921Z,101206.91
2023-04-21T15:27:06.061Z,101218.00
2023-04-21T15:29:33.082Z,101203.06
2023-04-21T15:32:15.699Z,101200.06
2023-04-21T15:34:42.852Z,101205.19
2023-04-21T15:37:09.609Z,101201.50
2023-04-21T15:39:36.657Z,101202.59
2023-04-21T15:42:04.717Z,101205.69
2023-04-21T15:44:33.347Z,101198.94
2023-04-21T15:47:00.512Z,101189.22
2023-04-21T15:49:28.856Z,101190.16
2023-04-21T15:52:21.698Z,101196.16
2023-04-21T15:54:49.406Z,101191.34
2023-04-21T15:57:21.984Z,101189.09
2023-04-21T15:59:49.050Z,101190.38
2023-04-21T16:02:16.416Z,101187.22
2023-04-21T16:04:44.618Z,101186.34
2023-04-21T16:07:11.817Z,101184.09
2023-04-21T16:09:48.555Z,101205.56
2023-04-21T16:12:15.161Z,101175.28
2023-04-21T16:14:55.969Z,101165.59
2023-04-21T16:17:28.127Z,101161.31
2023-04-21T16:19:55.259Z,101162.06
2023-04-21T16:22:34.729Z,101151.91
2023-04-21T16:25:02.190Z,101161.50
2023-04-21T16:27:28.843Z,101157.00
2023-04-21T16:29:56.213Z,101157.69
2023-04-21T16:32:24.807Z,101146.94
2023-04-21T16:34:52.582Z,101150.34
2023-04-21T16:37:19.392Z,101147.75
2023-04-21T16:39:47.345Z,101138.44
2023-04-21T16:42:14.312Z,101137.00
2023-04-21T16:44:42.333Z,101143.09
2023-04-21T16:47:29.825Z,101135.50
2023-04-21T16:49:58.466Z,101136.88
2023-04-21T16:52:32.045Z,101132.53
2023-04-21T16:54:59.262Z,101127.63
2023-04-21T16:57:28.431Z,101130.00
2023-04-21T16:59:55.505Z,101124.50
2023-04-21T17:02:24.262Z,101129.88
2023-04-21T17:04:52.306Z,101124.81
2023-04-21T17:07:20.677Z,101124.97
2023-04-21T17:09:48.004Z,101119.28
2023-04-21T17:12:15.791Z,101124.16
2023-04-21T17:14:42.806Z,101113.25
2023-04-21T17:17:09.678Z,101123.63
2023-04-21T17:19:36.797Z,101125.44
2023-04-21T17:22:05.110Z,101126.19
2023-04-21T17:24:44.879Z,101121.72
2023-04-21T17:27:19.070Z,101126.94
2023-04-21T17:29:49.605Z,101122.59
2023-04-21T17:32:17.239Z,101119.94
2023-04-21T17:34:46.683Z,101123.31
2023-04-21T17:37:14.151Z,101128.09
2023-04-21T17:39:41.053Z,101127.03
2023-04-21T17:42:09.074Z,101132.75
2023-04-21T17:44:36.772Z,101128.69
2023-04-21T17:47:08.473Z,101120.81
2023-04-21T17:49:38.882Z,101127.69
2023-04-21T17:52:09.213Z,101132.22
2023-04-21T17:54:37.844Z,101131.78
2023-04-21T17:57:07.419Z,101128.50
2023-04-21T17:59:34.361Z,101127.50
2023-04-21T18:02:01.656Z,101129.34
2023-04-21T18:04:34.309Z,101126.88
2023-04-21T18:07:05.325Z,101126.81
2023-04-21T18:09:51.712Z,101123.53
2023-04-21T18:12:19.611Z,101132.28
2023-04-21T18:14:49.091Z,101130.50
2023-04-21T18:17:17.538Z,101131.53
2023-04-21T18:19:45.001Z,101131.72
2023-04-21T18:22:12.361Z,101127.56
2023-04-21T18:24:40.797Z,101135.69
2023-04-21T18:27:08.225Z,101122.22
2023-04-21T18:29:35.815Z,101129.34
2023-04-21T18:32:03.154Z,101133.22
2023-04-21T18:34:30.617Z,101134.44
2023-04-21T18:36:57.917Z,101136.81
2023-04-21T18:39:25.926Z,101137.22
2023-04-21T18:41:54.268Z,101139.50
2023-04-21T18:44:21.960Z,101132.88
2023-04-21T18:46:53.699Z,101137.84
2023-04-21T18:49:22.497Z,101141.94
2023-04-21T18:51:49.767Z,101136.97
2023-04-21T18:54:18.316Z,101141.72
2023-04-21T18:56:47.482Z,101135.13
2023-04-21T18:59:14.776Z,101135.66
2023-04-21T19:01:42.047Z,101135.28
2023-04-21T19:04:12.628Z,101128.72
2023-04-21T19:06:39.997Z,101132.41
2023-04-21T19:09:07.182Z,101132.06
2023-04-21T19:11:36.420Z,101131.81
2023-04-21T19:14:03.100Z,101134.69
2023-04-21T19:16:46.044Z,101135.47
2023-04-21T19:19:12.809Z,101136.13
2023-04-21T19:21:40.503Z,101136.97
2023-04-21T19:24:07.967Z,101130.75
2023-04-21T19:26:34.908Z,101129.56
2023-04-21T19:29:02.106Z,101124.16
2023-04-21T19:31:29.218Z,101136.16
2023-04-21T19:34:10.356Z,101127.69
2023-04-21T19:36:38.080Z,101130.13
2023-04-21T19:39:06.995Z,101130.78
2023-04-21T19:41:41.107Z,101129.84
2023-04-21T19:44:08.484Z,101134.41
2023-04-21T19:46:37.020Z,101137.91
2023-04-21T19:49:04.586Z,101126.16
2023-04-21T19:51:33.297Z,101128.47
2023-04-21T19:54:10.552Z,101131.03
2023-04-21T19:56:38.584Z,101121.88
2023-04-21T19:59:06.217Z,101125.00
2023-04-21T20:01:36.886Z,101116.28
2023-04-21T20:04:04.666Z,101116.09
2023-04-21T20:06:32.506Z,101121.66
2023-04-21T20:08:59.260Z,101121.06
2023-04-21T20:11:29.198Z,101114.63
2023-04-21T20:13:57.009Z,101119.94
2023-04-21T20:16:27.116Z,101119.94
2023-04-21T20:18:54.617Z,101119.63
2023-04-21T20:21:21.966Z,101113.59
2023-04-21T20:23:55.012Z,101123.72
2023-04-21T20:26:22.520Z,101116.09
2023-04-21T20:28:49.017Z,101118.34
2023-04-21T20:31:16.597Z,101119.41
2023-04-21T20:33:43.324Z,101117.06
2023-04-21T20:36:17.772Z,101116.28
2023-04-21T20:38:49.752Z,101112.31
2023-04-21T20:41:16.550Z,101118.75
2023-04-21T20:43:45.618Z,101111.72
2023-04-21T20:46:12.845Z,101119.38
2023-04-21T20:48:40.350Z,101124.16
2023-04-21T20:51:27.320Z,101123.69
2023-04-21T20:53:54.209Z,101121.63
2023-04-21T20:56:23.035Z,101120.00
2023-04-21T20:58:49.706Z,101128.06
2023-04-21T21:01:16.989Z,101130.69
2023-04-21T21:03:44.353Z,101124.94
2023-04-21T21:06:20.727Z,101119.59
2023-04-21T21:08:47.954Z,101119.19
2023-04-21T21:11:15.439Z,101122.41
2023-04-21T21:13:46.133Z,101115.47
2023-04-21T21:16:16.040Z,101116.38
2023-04-21T21:18:43.546Z,101113.72
2023-04-21T21:21:12.250Z,101116.56
2023-04-21T21:23:39.266Z,101116.66
2023-04-21T21:26:06.427Z,101111.56
2023-04-21T21:28:33.955Z,101115.81
2023-04-21T21:31:01.646Z,101111.66
2023-04-21T21:33:28.573Z,101110.72
2023-04-21T21:35:56.071Z,101119.00
2023-04-21T21:38:23.930Z,101112.13
2023-04-21T21:40:51.118Z,101111.34
2023-04-21T21:43:18.484Z,101115.94
2023-04-21T21:45:55.202Z,101113.31
2023-04-21T21:48:22.725Z,101114.16
2023-04-21T21:50:49.971Z,101117.75
2023-04-21T21:53:19.259Z,101111.47
2023-04-21T21:55:46.019Z,101121.00
2023-04-21T21:58:14.251Z,101116.84
2023-04-21T22:00:41.798Z,101106.47
2023-04-21T22:03:11.878Z,101104.97
2023-04-21T22:05:39.857Z,101112.94
2023-04-21T22:08:07.641Z,101107.09
2023-04-21T22:10:34.983Z,101107.66
2023-04-21T22:13:02.222Z,101102.94
2023-04-21T22:15:58.226Z,101103.78
2023-04-21T22:18:25.126Z,101109.69
2023-04-21T22:20:52.046Z,101109.09
2023-04-21T22:23:20.692Z,101106.94
2023-04-21T22:25:48.794Z,101100.34
2023-04-21T22:28:22.091Z,101097.50
2023-04-21T22:30:49.168Z,101100.31
2023-04-21T22:33:19.641Z,101096.19
2023-04-21T22:35:46.801Z,101100.97
2023-04-21T22:38:14.576Z,101100.09
2023-04-21T22:40:41.454Z,101092.53
2023-04-21T22:43:08.365Z,101095.78
2023-04-21T22:45:35.386Z,101089.00
2023-04-21T22:48:39.043Z,101095.88
2023-04-21T22:51:06.477Z,101098.50
2023-04-21T22:53:33.671Z,101088.81
2023-04-21T22:56:00.841Z,101091.66
2023-04-21T22:58:30.936Z,101091.84
2023-04-21T23:00:58.739Z,101083.47
2023-04-21T23:03:25.742Z,101083.03
2023-04-21T23:05:59.482Z,101082.56
2023-04-21T23:08:27.187Z,101073.56
2023-04-21T23:10:54.112Z,101079.56
2023-04-21T23:13:21.410Z,101070.81
2023-04-21T23:15:49.041Z,101070.34
2023-04-21T23:18:16.787Z,101072.69
2023-04-21T23:20:43.807Z,101068.63
2023-04-21T23:23:11.227Z,101074.22
2023-04-21T23:25:38.738Z,101063.38
2023-04-21T23:28:06.253Z,101061.78
2023-04-21T23:30:34.468Z,101067.47
2023-04-21T23:33:16.655Z,101054.66
2023-04-21T23:35:43.599Z,101056.50
2023-04-21T23:38:11.651Z,101059.66
2023-04-21T23:40:46.984Z,101054.31
2023-04-21T23:43:18.846Z,101043.69
2023-04-21T23:45:48.309Z,101043.41
2023-04-21T23:48:17.134Z,101048.91
2023-04-21T23:50:44.757Z,101045.91
2023-04-21T23:53:12.143Z,101045.75
2023-04-21T23:55:41.665Z,101054.63
2023-04-21T23:58:08.278Z,101040.97
